sensor_id;sensor_type;location;lat;lon;timestamp;pressure;altitude;pressure_sealevel;temperature;humidity
16806;BME280;8520;50.102;20.010;2023-03-22T00:01:25;98199.03;;;11.14;79.27
16806;BME280;8520;50.102;20.010;2023-03-22T00:03:54;98193.59;;;11.19;79.16
16806;BME280;8520;50.102;20.010;2023-03-22T00:06:23;98187.84;;;11.23;79.44
16806;BME280;8520;50.102;20.010;2023-03-22T00:08:52;98185.34;;;11.25;79.41
16806;BME280;8520;50.102;20.010;2023-03-22T00:11:22;98181.06;;;11.24;79.48
16806;BME280;8520;50.102;20.010;2023-03-22T00:13:51;98185.28;;;11.19;79.54
16806;BME280;8520;50.102;20.010;2023-03-22T00:16:20;98189.34;;;11.24;79.53
16806;BME280;8520;50.102;20.010;2023-03-22T00:18:49;98175.06;;;11.26;79.16
16806;BME280;8520;50.102;20.010;2023-03-22T00:21:17;98174.50;;;11.21;79.05
16806;BME280;8520;50.102;20.010;2023-03-22T00:23:45;98173.00;;;11.20;79.15
16806;BME280;8520;50.102;20.010;2023-03-22T00:26:13;98176.00;;;11.17;79.06
16806;BME280;8520;50.102;20.010;2023-03-22T00:28:43;98177.50;;;11.18;79.06
16806;BME280;8520;50.102;20.010;2023-03-22T00:31:13;98173.41;;;11.13;79.43
16806;BME280;8520;50.102;20.010;2023-03-22T00:33:41;98175.44;;;11.13;79.25
16806;BME280;8520;50.102;20.010;2023-03-22T00:36:11;98172.53;;;11.02;79.66
16806;BME280;8520;50.102;20.010;2023-03-22T00:38:40;98168.31;;;11.06;79.48
16806;BME280;8520;50.102;20.010;2023-03-22T00:41:11;98162.78;;;11.06;79.44
16806;BME280;8520;50.102;20.010;2023-03-22T00:43:40;98158.25;;;11.03;79.83
16806;BME280;8520;50.102;20.010;2023-03-22T00:46:10;98163.50;;;11.01;79.96
16806;BME280;8520;50.102;20.010;2023-03-22T00:48:39;98166.75;;;11.00;79.83
16806;BME280;8520;50.102;20.010;2023-03-22T00:51:10;98164.91;;;10.91;80.07
16806;BME280;8520;50.102;20.010;2023-03-22T00:53:39;98154.34;;;10.89;79.89
16806;BME280;8520;50.102;20.010;2023-03-22T00:56:10;98158.66;;;10.96;80.12
16806;BME280;8520;50.102;20.010;2023-03-22T00:58:54;98142.75;;;10.85;79.57
16806;BME280;8520;50.102;20.010;2023-03-22T01:01:24;98154.63;;;10.91;79.77
16806;BME280;8520;50.102;20.010;2023-03-22T01:03:53;98155.56;;;10.88;79.58
16806;BME280;8520;50.102;20.010;2023-03-22T01:06:21;98149.72;;;10.81;79.51
16806;BME280;8520;50.102;20.010;2023-03-22T01:08:49;98153.41;;;10.78;79.93
16806;BME280;8520;50.102;20.010;2023-03-22T01:11:21;98152.38;;;10.75;79.81
16806;BME280;8520;50.102;20.010;2023-03-22T01:13:51;98151.25;;;10.61;80.59
16806;BME280;8520;50.102;20.010;2023-03-22T01:16:25;98151.25;;;10.61;80.59
16806;BME280;8520;50.102;20.010;2023-03-22T01:18:53;98143.97;;;10.64;80.96
16806;BME280;8520;50.102;20.010;2023-03-22T01:21:21;98140.66;;;10.60;81.41
16806;BME280;8520;50.102;20.010;2023-03-22T01:23:49;98143.91;;;10.58;81.35
16806;BME280;8520;50.102;20.010;2023-03-22T01:26:17;98139.13;;;10.59;81.82
16806;BME280;8520;50.102;20.010;2023-03-22T01:28:45;98138.38;;;10.58;81.88
16806;BME280;8520;50.102;20.010;2023-03-22T01:31:14;98143.41;;;10.60;81.88
16806;BME280;8520;50.102;20.010;2023-03-22T01:33:43;98140.19;;;10.61;82.10
16806;BME280;8520;50.102;20.010;2023-03-22T01:36:11;98133.13;;;10.40;83.33
16806;BME280;8520;50.102;20.010;2023-03-22T01:38:39;98130.31;;;10.55;82.94
16806;BME280;8520;50.102;20.010;2023-03-22T01:41:08;98127.63;;;10.60;82.41
16806;BME280;8520;50.102;20.010;2023-03-22T01:43:39;98124.66;;;10.64;82.56
16806;BME280;8520;50.102;20.010;2023-03-22T01:46:07;98119.63;;;10.62;82.36
16806;BME280;8520;50.102;20.010;2023-03-22T01:48:38;98114.94;;;10.48;82.96
16806;BME280;8520;50.102;20.010;2023-03-22T01:51:15;98108.41;;;10.46;82.51
16806;BME280;8520;50.102;20.010;2023-03-22T01:54:21;98106.31;;;10.40;82.70
16806;BME280;8520;50.102;20.010;2023-03-22T01:56:51;98103.06;;;10.42;82.68
16806;BME280;8520;50.102;20.010;2023-03-22T01:59:30;98105.38;;;10.44;82.44
16806;BME280;8520;50.102;20.010;2023-03-22T02:02:09;98097.53;;;10.42;82.90
16806;BME280;8520;50.102;20.010;2023-03-22T02:04:53;98092.78;;;10.22;82.53
16806;BME280;8520;50.102;20.010;2023-03-22T02:07:28;98081.13;;;10.33;82.18
16806;BME280;8520;50.102;20.010;2023-03-22T02:09:59;98079.91;;;10.34;82.44
16806;BME280;8520;50.102;20.010;2023-03-22T02:12:47;98075.84;;;10.29;82.83
16806;BME280;8520;50.102;20.010;2023-03-22T02:15:37;98081.91;;;10.33;82.80
16806;BME280;8520;50.102;20.010;2023-03-22T02:18:37;98078.06;;;10.25;82.40
16806;BME280;8520;50.102;20.010;2023-03-22T02:24:39;98079.78;;;9.88;81.81
16806;BME280;8520;50.102;20.010;2023-03-22T02:27:38;98069.88;;;9.96;81.85
16806;BME280;8520;50.102;20.010;2023-03-22T02:30:36;98069.13;;;9.95;81.72
16806;BME280;8520;50.102;20.010;2023-03-22T02:33:29;98067.41;;;9.98;82.12
16806;BME280;8520;50.102;20.010;2023-03-22T02:36:23;98060.66;;;9.99;82.39
16806;BME280;8520;50.102;20.010;2023-03-22T02:39:11;98056.41;;;9.98;83.01
16806;BME280;8520;50.102;20.010;2023-03-22T02:41:57;98052.09;;;9.97;82.41
16806;BME280;8520;50.102;20.010;2023-03-22T02:44:39;98052.09;;;9.97;82.72
16806;BME280;8520;50.102;20.010;2023-03-22T02:47:16;98054.78;;;9.91;82.09
16806;BME280;8520;50.102;20.010;2023-03-22T02:49:53;98054.28;;;9.72;82.23
16806;BME280;8520;50.102;20.010;2023-03-22T02:52:26;98054.19;;;9.67;82.52
16806;BME280;8520;50.102;20.010;2023-03-22T02:55:05;98049.44;;;9.67;83.39
16806;BME280;8520;50.102;20.010;2023-03-22T02:57:38;98051.16;;;9.65;83.81
16806;BME280;8520;50.102;20.010;2023-03-22T03:00:09;98055.44;;;9.66;83.12
16806;BME280;8520;50.102;20.010;2023-03-22T03:02:42;98054.53;;;9.54;82.96
16806;BME280;8520;50.102;20.010;2023-03-22T03:05:12;98063.19;;;9.47;81.95
16806;BME280;8520;50.102;20.010;2023-03-22T03:07:43;98057.13;;;9.28;82.16
16806;BME280;8520;50.102;20.010;2023-03-22T03:10:16;98056.09;;;9.25;82.50
16806;BME280;8520;50.102;20.010;2023-03-22T03:12:45;98056.44;;;9.18;82.09
16806;BME280;8520;50.102;20.010;2023-03-22T03:15:15;98052.34;;;9.14;83.13
16806;BME280;8520;50.102;20.010;2023-03-22T03:17:53;98059.47;;;9.06;83.82
16806;BME280;8520;50.102;20.010;2023-03-22T03:20:33;98065.25;;;8.78;82.38
16806;BME280;8520;50.102;20.010;2023-03-22T03:23:13;98067.03;;;8.66;83.94
16806;BME280;8520;50.102;20.010;2023-03-22T03:25:50;98066.47;;;8.77;83.67
16806;BME280;8520;50.102;20.010;2023-03-22T03:28:28;98067.81;;;8.82;84.13
16806;BME280;8520;50.102;20.010;2023-03-22T03:31:15;98066.78;;;8.79;84.19
16806;BME280;8520;50.102;20.010;2023-03-22T03:33:50;98067.78;;;8.52;82.38
16806;BME280;8520;50.102;20.010;2023-03-22T03:36:24;98074.59;;;8.57;83.33
16806;BME280;8520;50.102;20.010;2023-03-22T03:38:54;98076.78;;;8.53;82.44
16806;BME280;8520;50.102;20.010;2023-03-22T03:41:27;98074.50;;;8.51;82.25
16806;BME280;8520;50.102;20.010;2023-03-22T03:43:57;98068.06;;;8.54;82.20
16806;BME280;8520;50.102;20.010;2023-03-22T03:46:26;98074.41;;;8.46;83.07
16806;BME280;8520;50.102;20.010;2023-03-22T03:48:56;98075.84;;;8.32;83.68
16806;BME280;8520;50.102;20.010;2023-03-22T03:51:26;98070.84;;;8.30;83.93
16806;BME280;8520;50.102;20.010;2023-03-22T03:53:54;98071.31;;;8.29;84.50
16806;BME280;8520;50.102;20.010;2023-03-22T03:56:22;98074.34;;;8.31;84.49
16806;BME280;8520;50.102;20.010;2023-03-22T03:58:53;98074.88;;;8.20;84.74
16806;BME280;8520;50.102;20.010;2023-03-22T04:01:21;98078.44;;;8.35;85.01
16806;BME280;8520;50.102;20.010;2023-03-22T04:04:12;98076.38;;;8.45;84.92
16806;BME280;8520;50.102;20.010;2023-03-22T04:06:52;98082.44;;;8.49;84.75
16806;BME280;8520;50.102;20.010;2023-03-22T04:09:23;98086.38;;;8.57;84.67
16806;BME280;8520;50.102;20.010;2023-03-22T04:11:58;98080.66;;;8.46;84.74
16806;BME280;8520;50.102;20.010;2023-03-22T04:14:27;98082.44;;;8.49;84.68
16806;BME280;8520;50.102;20.010;2023-03-22T04:17:00;98079.41;;;8.47;84.97
16806;BME280;8520;50.102;20.010;2023-03-22T04:19:29;98081.00;;;8.39;84.86
16806;BME280;8520;50.102;20.010;2023-03-22T04:21:58;98081.41;;;8.47;84.78
16806;BME280;8520;50.102;20.010;2023-03-22T04:24:26;98077.50;;;8.38;84.76
16806;BME280;8520;50.102;20.010;2023-03-22T04:26:55;98085.94;;;8.35;85.20
16806;BME280;8520;50.102;20.010;2023-03-22T04:29:27;98079.78;;;8.40;85.37
16806;BME280;8520;50.102;20.010;2023-03-22T04:32:13;98081.13;;;8.45;84.61
16806;BME280;8520;50.102;20.010;2023-03-22T04:34:42;98080.25;;;8.38;84.90
16806;BME280;8520;50.102;20.010;2023-03-22T04:37:13;98082.78;;;8.27;84.21
16806;BME280;8520;50.102;20.010;2023-03-22T04:39:48;98086.69;;;8.35;84.76
16806;BME280;8520;50.102;20.010;2023-03-22T04:42:29;98092.59;;;8.43;84.51
16806;BME280;8520;50.102;20.010;2023-03-22T04:45:25;98093.19;;;8.23;84.77
16806;BME280;8520;50.102;20.010;2023-03-22T04:47:59;98098.22;;;8.25;84.80
16806;BME280;8520;50.102;20.010;2023-03-22T04:50:29;98092.94;;;8.36;85.00
16806;BME280;8520;50.102;20.010;2023-03-22T04:53:01;98100.84;;;8.43;84.73
16806;BME280;8520;50.102;20.010;2023-03-22T04:55:31;98101.41;;;8.47;84.74
16806;BME280;8520;50.102;20.010;2023-03-22T04:58:00;98098.75;;;8.38;84.76
16806;BME280;8520;50.102;20.010;2023-03-22T05:00:30;98097.63;;;8.45;84.47
16806;BME280;8520;50.102;20.010;2023-03-22T05:03:00;98096.59;;;8.42;84.14
16806;BME280;8520;50.102;20.010;2023-03-22T05:05:38;98094.13;;;8.44;83.81
16806;BME280;8520;50.102;20.010;2023-03-22T05:08:07;98095.16;;;8.47;83.86
16806;BME280;8520;50.102;20.010;2023-03-22T05:10:38;98101.13;;;8.45;83.37
16806;BME280;8520;50.102;20.010;2023-03-22T05:13:07;98104.00;;;8.27;83.42
16806;BME280;8520;50.102;20.010;2023-03-22T05:15:41;98094.34;;;8.31;83.97
16806;BME280;8520;50.102;20.010;2023-03-22T05:18:12;98100.44;;;8.35;83.30
16806;BME280;8520;50.102;20.010;2023-03-22T05:20:42;98101.91;;;8.46;84.24
16806;BME280;8520;50.102;20.010;2023-03-22T05:23:16;98107.69;;;8.48;83.89
16806;BME280;8520;50.102;20.010;2023-03-22T05:25:49;98111.50;;;8.26;83.34
16806;BME280;8520;50.102;20.010;2023-03-22T05:28:19;98114.78;;;8.16;83.14
16806;BME280;8520;50.102;20.010;2023-03-22T05:31:09;98108.00;;;8.26;84.11
16806;BME280;8520;50.102;20.010;2023-03-22T05:33:46;98114.88;;;8.21;84.12
16806;BME280;8520;50.102;20.010;2023-03-22T05:36:19;98114.28;;;8.41;84.19
16806;BME280;8520;50.102;20.010;2023-03-22T05:39:08;98117.09;;;8.56;84.08
16806;BME280;8520;50.102;20.010;2023-03-22T05:41:36;98113.44;;;8.35;83.52
16806;BME280;8520;50.102;20.010;2023-03-22T05:44:05;98117.97;;;8.38;84.05
16806;BME280;8520;50.102;20.010;2023-03-22T05:46:37;98107.53;;;8.66;84.90
16806;BME280;8520;50.102;20.010;2023-03-22T05:49:28;98103.69;;;8.87;85.30
16806;BME280;8520;50.102;20.010;2023-03-22T05:51:56;98102.75;;;8.90;85.11
16806;BME280;8520;50.102;20.010;2023-03-22T05:54:35;98101.63;;;8.97;84.46
16806;BME280;8520;50.102;20.010;2023-03-22T05:57:04;98109.28;;;8.93;84.56
16806;BME280;8520;50.102;20.010;2023-03-22T05:59:33;98097.25;;;9.20;84.13
16806;BME280;8520;50.102;20.010;2023-03-22T06:02:02;98116.25;;;9.47;84.05
16806;BME280;8520;50.102;20.010;2023-03-22T06:04:31;98108.88;;;9.39;82.48
16806;BME280;8520;50.102;20.010;2023-03-22T06:07:03;98110.06;;;9.67;82.88
16806;BME280;8520;50.102;20.010;2023-03-22T06:09:52;98116.88;;;9.87;82.13
16806;BME280;8520;50.102;20.010;2023-03-22T06:12:21;98112.31;;;9.83;80.69
16806;BME280;8520;50.102;20.010;2023-03-22T06:15:10;98108.66;;;10.07;81.34
16806;BME280;8520;50.102;20.010;2023-03-22T06:17:56;98109.91;;;10.26;80.75
16806;BME280;8520;50.102;20.010;2023-03-22T06:20:27;98109.56;;;10.39;80.92
16806;BME280;8520;50.102;20.010;2023-03-22T06:23:00;98121.34;;;10.39;79.66
16806;BME280;8520;50.102;20.010;2023-03-22T06:25:29;98115.19;;;10.09;79.14
16806;BME280;8520;50.102;20.010;2023-03-22T06:27:58;98119.13;;;10.23;79.96
16806;BME280;8520;50.102;20.010;2023-03-22T06:30:27;98115.16;;;10.45;79.26
16806;BME280;8520;50.102;20.010;2023-03-22T06:33:12;98114.06;;;10.36;79.27
16806;BME280;8520;50.102;20.010;2023-03-22T06:35:43;98119.91;;;10.44;78.49
16806;BME280;8520;50.102;20.010;2023-03-22T06:38:18;98115.38;;;10.61;78.36
16806;BME280;8520;50.102;20.010;2023-03-22T06:40:46;98116.84;;;10.42;78.61
16806;BME280;8520;50.102;20.010;2023-03-22T06:43:14;98116.44;;;10.69;79.06
16806;BME280;8520;50.102;20.010;2023-03-22T06:45:46;98112.44;;;10.91;78.13
16806;BME280;8520;50.102;20.010;2023-03-22T06:48:21;98117.81;;;11.00;77.51
16806;BME280;8520;50.102;20.010;2023-03-22T06:51:03;98110.88;;;10.84;77.41
16806;BME280;8520;50.102;20.010;2023-03-22T06:53:33;98108.31;;;11.07;77.73
16806;BME280;8520;50.102;20.010;2023-03-22T06:56:03;98110.75;;;10.79;77.55
16806;BME280;8520;50.102;20.010;2023-03-22T06:58:42;98107.53;;;11.01;77.47
16806;BME280;8520;50.102;20.010;2023-03-22T07:01:10;98114.94;;;11.15;77.01
16806;BME280;8520;50.102;20.010;2023-03-22T07:03:40;98114.34;;;11.31;76.87
16806;BME280;8520;50.102;20.010;2023-03-22T07:06:12;98121.22;;;11.15;77.25
16806;BME280;8520;50.102;20.010;2023-03-22T07:08:44;98121.09;;;11.30;77.63
16806;BME280;8520;50.102;20.010;2023-03-22T07:11:16;98119.53;;;11.23;77.74
16806;BME280;8520;50.102;20.010;2023-03-22T07:13:49;98111.88;;;11.39;77.92
16806;BME280;8520;50.102;20.010;2023-03-22T07:16:20;98114.13;;;11.35;77.74
16806;BME280;8520;50.102;20.010;2023-03-22T07:18:53;98116.84;;;11.61;77.29
16806;BME280;8520;50.102;20.010;2023-03-22T07:21:22;98120.75;;;11.48;76.50
16806;BME280;8520;50.102;20.010;2023-03-22T07:23:55;98119.72;;;11.77;76.23
16806;BME280;8520;50.102;20.010;2023-03-22T07:26:27;98125.09;;;11.55;75.87
16806;BME280;8520;50.102;20.010;2023-03-22T07:28:57;98114.50;;;11.85;75.57
16806;BME280;8520;50.102;20.010;2023-03-22T07:31:28;98117.34;;;11.96;75.32
16806;BME280;8520;50.102;20.010;2023-03-22T07:34:04;98115.88;;;12.06;75.05
16806;BME280;8520;50.102;20.010;2023-03-22T07:36:55;98111.47;;;12.20;75.28
16806;BME280;8520;50.102;20.010;2023-03-22T07:39:24;98108.06;;;12.36;74.54
16806;BME280;8520;50.102;20.010;2023-03-22T07:41:55;98092.69;;;12.35;74.96
16806;BME280;8520;50.102;20.010;2023-03-22T07:44:23;98099.00;;;12.36;74.65
16806;BME280;8520;50.102;20.010;2023-03-22T07:47:10;98090.75;;;12.58;74.13
16806;BME280;8520;50.102;20.010;2023-03-22T07:49:47;98098.13;;;12.73;73.86
16806;BME280;8520;50.102;20.010;2023-03-22T07:52:19;98106.81;;;12.43;72.78
16806;BME280;8520;50.102;20.010;2023-03-22T07:54:47;98115.19;;;12.54;72.68
16806;BME280;8520;50.102;20.010;2023-03-22T07:57:16;98112.19;;;12.69;72.82
16806;BME280;8520;50.102;20.010;2023-03-22T07:59:50;98109.09;;;12.45;74.39
16806;BME280;8520;50.102;20.010;2023-03-22T08:02:18;98104.34;;;12.56;74.46
16806;BME280;8520;50.102;20.010;2023-03-22T08:04:52;98096.88;;;12.79;73.58
16806;BME280;8520;50.102;20.010;2023-03-22T08:07:39;98100.09;;;12.66;73.56
16806;BME280;8520;50.102;20.010;2023-03-22T08:10:10;98102.31;;;12.51;74.77
16806;BME280;8520;50.102;20.010;2023-03-22T08:12:38;98097.16;;;12.98;74.23
16806;BME280;8520;50.102;20.010;2023-03-22T08:15:14;98092.16;;;13.13;73.10
16806;BME280;8520;50.102;20.010;2023-03-22T08:17:42;98093.41;;;13.23;72.31
16806;BME280;8520;50.102;20.010;2023-03-22T08:20:18;98086.59;;;13.02;72.38
16806;BME280;8520;50.102;20.010;2023-03-22T08:22:53;98088.38;;;13.16;72.38
16806;BME280;8520;50.102;20.010;2023-03-22T08:25:47;98094.44;;;13.32;71.98
16806;BME280;8520;50.102;20.010;2023-03-22T08:28:15;98090.41;;;13.44;72.02
16806;BME280;8520;50.102;20.010;2023-03-22T08:30:45;98096.47;;;13.37;70.07
16806;BME280;8520;50.102;20.010;2023-03-22T08:33:14;98093.19;;;13.27;72.41
16806;BME280;8520;50.102;20.010;2023-03-22T08:35:45;98095.97;;;13.61;70.10
16806;BME280;8520;50.102;20.010;2023-03-22T08:38:13;98082.09;;;13.72;68.99
16806;BME280;8520;50.102;20.010;2023-03-22T08:40:46;98085.38;;;13.87;68.73
16806;BME280;8520;50.102;20.010;2023-03-22T08:43:18;98082.84;;;14.00;68.64
16806;BME280;8520;50.102;20.010;2023-03-22T08:45:46;98082.47;;;14.26;68.83
16806;BME280;8520;50.102;20.010;2023-03-22T08:48:18;98085.53;;;14.23;67.56
16806;BME280;8520;50.102;20.010;2023-03-22T08:51:03;98085.03;;;14.24;65.83
16806;BME280;8520;50.102;20.010;2023-03-22T08:53:46;98085.72;;;14.47;66.09
16806;BME280;8520;50.102;20.010;2023-03-22T08:56:37;98090.94;;;14.68;65.63
16806;BME280;8520;50.102;20.010;2023-03-22T08:59:17;98091.25;;;15.00;65.46
16806;BME280;8520;50.102;20.010;2023-03-22T09:01:56;98091.97;;;15.11;63.00
16806;BME280;8520;50.102;20.010;2023-03-22T09:04:24;98084.19;;;15.34;62.95
16806;BME280;8520;50.102;20.010;2023-03-22T09:06:55;98086.09;;;15.50;61.91
16806;BME280;8520;50.102;20.010;2023-03-22T09:09:23;98082.44;;;15.67;62.25
16806;BME280;8520;50.102;20.010;2023-03-22T09:11:53;98088.75;;;15.67;61.79
16806;BME280;8520;50.102;20.010;2023-03-22T09:14:22;98088.56;;;15.90;60.52
16806;BME280;8520;50.102;20.010;2023-03-22T09:16:51;98087.69;;;15.40;60.43
16806;BME280;8520;50.102;20.010;2023-03-22T09:19:20;98079.28;;;15.82;61.07
16806;BME280;8520;50.102;20.010;2023-03-22T09:21:48;98083.06;;;15.84;59.06
16806;BME280;8520;50.102;20.010;2023-03-22T09:24:29;98083.56;;;16.07;58.97
16806;BME280;8520;50.102;20.010;2023-03-22T09:27:00;98072.09;;;16.16;57.94
16806;BME280;8520;50.102;20.010;2023-03-22T09:29:29;98071.28;;;16.21;57.93
16806;BME280;8520;50.102;20.010;2023-03-22T09:32:01;98057.00;;;16.30;58.07
16806;BME280;8520;50.102;20.010;2023-03-22T09:34:32;98047.81;;;16.35;59.53
16806;BME280;8520;50.102;20.010;2023-03-22T09:37:02;98045.63;;;16.28;60.82
16806;BME280;8520;50.102;20.010;2023-03-22T09:39:42;98052.41;;;16.52;60.11
16806;BME280;8520;50.102;20.010;2023-03-22T09:42:20;98048.06;;;16.38;60.07
16806;BME280;8520;50.102;20.010;2023-03-22T09:44:52;98047.53;;;16.58;61.48
16806;BME280;8520;50.102;20.010;2023-03-22T09:47:31;98049.66;;;16.71;58.92
16806;BME280;8520;50.102;20.010;2023-03-22T09:50:13;98040.53;;;16.89;59.01
16806;BME280;8520;50.102;20.010;2023-03-22T09:52:42;98039.34;;;16.66;60.81
16806;BME280;8520;50.102;20.010;2023-03-22T09:55:17;98035.44;;;16.74;62.11
16806;BME280;8520;50.102;20.010;2023-03-22T09:57:51;98033.25;;;16.86;59.25
16806;BME280;8520;50.102;20.010;2023-03-22T10:00:26;98027.81;;;16.94;57.77
16806;BME280;8520;50.102;20.010;2023-03-22T10:03:07;98031.50;;;17.34;57.13
16806;BME280;8520;50.102;20.010;2023-03-22T10:05:43;98025.44;;;17.62;57.66
16806;BME280;8520;50.102;20.010;2023-03-22T10:08:25;98025.59;;;17.69;54.61
16806;BME280;8520;50.102;20.010;2023-03-22T10:10:58;98020.66;;;17.89;54.38
16806;BME280;8520;50.102;20.010;2023-03-22T10:13:32;98021.94;;;18.01;53.82
16806;BME280;8520;50.102;20.010;2023-03-22T10:16:06;98017.84;;;18.28;53.08
16806;BME280;8520;50.102;20.010;2023-03-22T10:18:40;98020.00;;;17.83;52.98
16806;BME280;8520;50.102;20.010;2023-03-22T10:21:11;98012.16;;;18.34;52.66
16806;BME280;8520;50.102;20.010;2023-03-22T10:23:42;98015.13;;;18.49;51.88
16806;BME280;8520;50.102;20.010;2023-03-22T10:26:19;98007.00;;;18.25;52.91
16806;BME280;8520;50.102;20.010;2023-03-22T10:28:56;98017.03;;;18.54;52.49
16806;BME280;8520;50.102;20.010;2023-03-22T10:31:29;98016.88;;;18.39;52.50
16806;BME280;8520;50.102;20.010;2023-03-22T10:34:01;98011.31;;;18.13;52.12
16806;BME280;8520;50.102;20.010;2023-03-22T10:36:38;98008.72;;;18.15;52.99
16806;BME280;8520;50.102;20.010;2023-03-22T10:39:12;98003.44;;;18.38;52.42
16806;BME280;8520;50.102;20.010;2023-03-22T10:41:45;97998.53;;;18.78;52.60
16806;BME280;8520;50.102;20.010;2023-03-22T10:44:17;98005.97;;;18.96;52.45
16806;BME280;8520;50.102;20.010;2023-03-22T10:46:48;98005.63;;;18.66;52.12
16806;BME280;8520;50.102;20.010;2023-03-22T10:49:22;98002.47;;;18.48;53.41
16806;BME280;8520;50.102;20.010;2023-03-22T10:51:55;97991.94;;;18.41;53.13
16806;BME280;8520;50.102;20.010;2023-03-22T10:54:25;97990.34;;;18.32;54.03
16806;BME280;8520;50.102;20.010;2023-03-22T10:56:55;97992.53;;;18.47;53.04
16806;BME280;8520;50.102;20.010;2023-03-22T10:59:44;97990.41;;;18.67;52.29
16806;BME280;8520;50.102;20.010;2023-03-22T11:02:19;97985.94;;;18.84;53.48
16806;BME280;8520;50.102;20.010;2023-03-22T11:04:49;97973.84;;;19.10;53.53
16806;BME280;8520;50.102;20.010;2023-03-22T11:07:36;97989.13;;;19.09;52.09
16806;BME280;8520;50.102;20.010;2023-03-22T11:10:18;97981.00;;;18.98;51.16
16806;BME280;8520;50.102;20.010;2023-03-22T11:12:51;97977.19;;;19.09;48.90
16806;BME280;8520;50.102;20.010;2023-03-22T11:15:26;97979.88;;;18.94;49.08
16806;BME280;8520;50.102;20.010;2023-03-22T11:18:03;97967.50;;;19.31;48.98
16806;BME280;8520;50.102;20.010;2023-03-22T11:20:33;97979.22;;;19.29;49.43
16806;BME280;8520;50.102;20.010;2023-03-22T11:23:03;97957.81;;;19.53;49.82
16806;BME280;8520;50.102;20.010;2023-03-22T11:25:34;97961.19;;;19.38;48.48
16806;BME280;8520;50.102;20.010;2023-03-22T11:28:13;97957.88;;;19.96;48.41
16806;BME280;8520;50.102;20.010;2023-03-22T11:30:57;97960.81;;;18.92;49.40
16806;BME280;8520;50.102;20.010;2023-03-22T11:33:26;97960.41;;;18.67;49.87
16806;BME280;8520;50.102;20.010;2023-03-22T11:35:55;97964.22;;;18.98;49.49
16806;BME280;8520;50.102;20.010;2023-03-22T11:38:26;97956.03;;;19.42;48.94
16806;BME280;8520;50.102;20.010;2023-03-22T11:40:59;97958.16;;;19.78;48.97
16806;BME280;8520;50.102;20.010;2023-03-22T11:43:33;97950.75;;;19.38;49.30
16806;BME280;8520;50.102;20.010;2023-03-22T11:46:03;97947.44;;;19.40;49.99
16806;BME280;8520;50.102;20.010;2023-03-22T11:48:33;97948.25;;;19.48;49.20
16806;BME280;8520;50.102;20.010;2023-03-22T11:51:06;97945.69;;;19.86;48.60
16806;BME280;8520;50.102;20.010;2023-03-22T11:53:37;97950.72;;;18.68;50.19
16806;BME280;8520;50.102;20.010;2023-03-22T11:56:09;97935.03;;;19.49;49.55
16806;BME280;8520;50.102;20.010;2023-03-22T11:58:52;97935.28;;;20.31;48.80
16806;BME280;8520;50.102;20.010;2023-03-22T12:01:30;97933.22;;;20.31;47.48
16806;BME280;8520;50.102;20.010;2023-03-22T12:04:02;97931.69;;;19.86;49.04
16806;BME280;8520;50.102;20.010;2023-03-22T12:06:34;97937.38;;;18.27;51.79
16806;BME280;8520;50.102;20.010;2023-03-22T12:09:16;97933.69;;;18.11;52.31
16806;BME280;8520;50.102;20.010;2023-03-22T12:11:50;97925.38;;;18.53;51.61
16806;BME280;8520;50.102;20.010;2023-03-22T12:14:24;97926.78;;;19.43;50.29
16806;BME280;8520;50.102;20.010;2023-03-22T12:16:56;97928.97;;;18.74;50.85
16806;BME280;8520;50.102;20.010;2023-03-22T12:19:37;97927.69;;;18.41;52.26
16806;BME280;8520;50.102;20.010;2023-03-22T12:22:11;97926.03;;;19.01;50.86
16806;BME280;8520;50.102;20.010;2023-03-22T12:24:40;97914.72;;;19.92;50.13
16806;BME280;8520;50.102;20.010;2023-03-22T12:27:15;97906.94;;;20.57;48.66
16806;BME280;8520;50.102;20.010;2023-03-22T12:29:51;97905.19;;;20.39;48.57
16806;BME280;8520;50.102;20.010;2023-03-22T12:32:23;97901.19;;;20.78;48.37
16806;BME280;8520;50.102;20.010;2023-03-22T12:34:55;97900.41;;;21.61;47.01
16806;BME280;8520;50.102;20.010;2023-03-22T12:37:45;97901.50;;;22.21;45.91
16806;BME280;8520;50.102;20.010;2023-03-22T12:40:20;97897.78;;;22.19;45.01
16806;BME280;8520;50.102;20.010;2023-03-22T12:42:58;97898.19;;;20.91;46.48
16806;BME280;8520;50.102;20.010;2023-03-22T12:45:30;97895.03;;;21.18;46.88
16806;BME280;8520;50.102;20.010;2023-03-22T12:48:05;97890.81;;;21.87;46.22
16806;BME280;8520;50.102;20.010;2023-03-22T12:50:41;97885.41;;;22.22;44.68
16806;BME280;8520;50.102;20.010;2023-03-22T12:53:12;97884.84;;;22.56;44.62
16806;BME280;8520;50.102;20.010;2023-03-22T12:55:43;97872.47;;;22.84;43.62
16806;BME280;8520;50.102;20.010;2023-03-22T12:58:14;97886.03;;;22.78;44.57
16806;BME280;8520;50.102;20.010;2023-03-22T13:00:47;97885.16;;;22.35;45.00
16806;BME280;8520;50.102;20.010;2023-03-22T13:03:24;97890.28;;;23.71;43.57
16806;BME280;8520;50.102;20.010;2023-03-22T13:06:04;97884.03;;;22.71;44.03
16806;BME280;8520;50.102;20.010;2023-03-22T13:09:03;97879.94;;;22.56;44.33
16806;BME280;8520;50.102;20.010;2023-03-22T13:11:38;97884.16;;;22.08;46.00
16806;BME280;8520;50.102;20.010;2023-03-22T13:14:09;97867.38;;;22.90;44.76
16806;BME280;8520;50.102;20.010;2023-03-22T13:16:49;97864.22;;;22.61;44.38
16806;BME280;8520;50.102;20.010;2023-03-22T13:19:35;97863.78;;;21.99;45.86
16806;BME280;8520;50.102;20.010;2023-03-22T13:22:18;97865.81;;;22.39;44.81
16806;BME280;8520;50.102;20.010;2023-03-22T13:25:26;97865.41;;;22.75;44.28
16806;BME280;8520;50.102;20.010;2023-03-22T13:27:57;97863.88;;;23.24;44.10
16806;BME280;8520;50.102;20.010;2023-03-22T13:30:29;97860.69;;;23.62;43.31
16806;BME280;8520;50.102;20.010;2023-03-22T13:33:10;97841.28;;;23.15;44.54
16806;BME280;8520;50.102;20.010;2023-03-22T13:35:43;97840.88;;;22.93;43.30
16806;BME280;8520;50.102;20.010;2023-03-22T13:38:19;97856.75;;;22.48;43.62
16806;BME280;8520;50.102;20.010;2023-03-22T13:40:55;97837.91;;;22.91;43.65
16806;BME280;8520;50.102;20.010;2023-03-22T13:43:29;97836.09;;;22.61;43.50